Time;durP1;ratioP1;P1;durP2;ratioP2;P2;SDS_P1;SDS_P2;PMS_P1;PMS_P2;Temp;Humidity;BMP_temperature;BMP_pressure;BME280_temperature;BME280_humidity;BME280_pressure;Samples;Min_cycle;Max_cycle;Signal;HPM_P1;HPM_P2
2023/05/10 00:01:37;;;;;;;0.80;0.80;;;13.10;99.90;;;;;;5074616;28;20528;-80
2023/05/10 00:04:03;;;;;;;2.60;0.82;;;13.10;99.90;;;;;;5073462;28;20377;-80
2023/05/10 00:06:29;;;;;;;1.08;0.98;;;13.10;99.90;;;;;;5074840;28;20028;-80
2023/05/10 00:08:55;;;;;;;2.25;0.95;;;13.10;99.90;;;;;;5083974;28;20426;-80
2023/05/10 00:11:20;;;;;;;2.58;1.00;;;13.10;99.90;;;;;;5073784;28;20029;-80
2023/05/10 00:13:47;;;;;;;1.13;0.88;;;13.10;99.90;;;;;;5073346;28;20031;-73
2023/05/10 00:16:12;;;;;;;2.85;0.98;;;13.00;99.90;;;;;;5072749;28;20037;-78
2023/05/10 00:18:38;;;;;;;0.70;0.60;;;13.00;99.90;;;;;;5076271;28;20046;-78
2023/05/10 00:21:04;;;;;;;0.88;0.68;;;13.00;99.90;;;;;;5073312;28;20577;-78
2023/05/10 00:23:30;;;;;;;1.77;0.40;;;12.90;99.90;;;;;;5071238;28;20473;-79
2023/05/10 00:25:56;;;;;;;0.85;0.50;;;12.90;99.90;;;;;;5071694;28;20029;-79
2023/05/10 00:28:22;;;;;;;2.55;0.30;;;12.80;99.90;;;;;;5074864;28;20021;-78
2023/05/10 00:30:47;;;;;;;3.20;0.40;;;12.70;99.90;;;;;;5077942;28;20040;-73
2023/05/10 00:33:13;;;;;;;0.30;0.30;;;12.60;99.90;;;;;;5071756;28;20084;-78
2023/05/10 00:35:38;;;;;;;0.98;0.20;;;12.60;99.90;;;;;;5072565;28;20059;-77
2023/05/10 00:38:04;;;;;;;1.55;0.30;;;12.50;99.90;;;;;;5071602;28;20032;-78
2023/05/10 00:40:30;;;;;;;1.20;0.40;;;12.50;99.90;;;;;;5073349;28;20037;-78
2023/05/10 00:42:56;;;;;;;0.35;0.30;;;12.50;99.90;;;;;;5073206;28;20504;-77
2023/05/10 00:45:22;;;;;;;0.40;0.40;;;12.40;99.90;;;;;;5077597;28;20074;-77
2023/05/10 00:47:48;;;;;;;0.47;0.20;;;12.50;99.90;;;;;;5076189;28;20080;-73
2023/05/10 00:50:15;;;;;;;0.93;0.30;;;12.40;99.90;;;;;;5084637;28;20032;-78
2023/05/10 00:52:42;;;;;;;0.10;0.10;;;12.40;99.90;;;;;;5075698;28;20028;-78
2023/05/10 00:55:09;;;;;;;0.70;0.15;;;12.40;99.90;;;;;;5074947;28;20025;-78
2023/05/10 00:57:35;;;;;;;0.40;0.30;;;12.40;99.90;;;;;;5074414;28;20099;-78
2023/05/10 01:00:02;;;;;;;0.30;0.30;;;12.40;99.90;;;;;;5071631;28;20435;-77
2023/05/10 01:02:28;;;;;;;0.20;0.20;;;12.40;99.90;;;;;;5071602;28;20024;-77
2023/05/10 01:04:54;;;;;;;1.25;0.32;;;12.30;99.90;;;;;;5074546;28;20130;-78
2023/05/10 01:07:20;;;;;;;0.10;0.10;;;12.30;99.90;;;;;;5071351;28;20396;-77
2023/05/10 01:13:07;;;;;;;0.57;0.20;;;12.30;99.90;;;;;;5065206;28;20035;-78
2023/05/10 01:15:33;;;;;;;0.98;0.40;;;12.30;99.90;;;;;;5071565;28;20033;-77
2023/05/10 01:18:00;;;;;;;0.30;0.30;;;12.20;99.90;;;;;;5071373;28;20017;-78
2023/05/10 01:20:40;;;;;;;0.10;0.10;;;12.30;99.90;;;;;;5073067;28;20040;-78
2023/05/10 01:23:47;;;;;;;1.27;0.20;;;12.30;99.90;;;;;;5070734;28;20024;-76
2023/05/10 01:26:24;;;;;;;0.20;0.20;;;12.30;99.90;;;;;;4972700;28;20061;-78
2023/05/10 01:29:13;;;;;;;0.30;0.30;;;12.30;99.90;;;;;;4989327;28;20547;-77
2023/05/10 01:32:18;;;;;;;0.20;0.13;;;12.30;99.90;;;;;;5034773;28;20486;-78
2023/05/10 01:35:05;;;;;;;0.57;0.20;;;12.20;99.90;;;;;;5065697;28;20028;-79
2023/05/10 01:37:46;;;;;;;0.75;0.63;;;12.20;99.90;;;;;;5077202;28;20024;-78
2023/05/10 01:40:26;;;;;;;2.40;0.25;;;12.20;99.90;;;;;;5073291;28;20052;-78
2023/05/10 01:42:56;;;;;;;0.32;0.20;;;12.20;99.90;;;;;;5062491;28;20568;-79
2023/05/10 01:45:31;;;;;;;1.90;0.20;;;12.20;99.90;;;;;;5059211;28;20374;-78
2023/05/10 01:48:10;;;;;;;0.10;0.10;;;12.30;99.90;;;;;;5045481;28;20037;-78
2023/05/10 01:50:38;;;;;;;0.10;0.10;;;12.30;99.90;;;;;;5073038;28;20035;-77
2023/05/10 01:53:07;;;;;;;0.60;0.20;;;12.20;99.90;;;;;;5074734;28;20039;-78
2023/05/10 01:55:39;;;;;;;0.20;0.20;;;12.20;99.90;;;;;;5073083;28;20039;-77
2023/05/10 01:58:09;;;;;;;0.25;0.10;;;12.20;99.90;;;;;;5071162;28;20274;-78
2023/05/10 02:00:35;;;;;;;;;;;12.20;99.90;;;;;;5073659;28;20111;-78
2023/05/10 02:03:06;;;;;;;0.22;0.22;;;12.20;99.90;;;;;;5057857;28;20387;-78
2023/05/10 02:05:33;;;;;;;0.55;0.35;;;12.10;99.90;;;;;;5072955;28;20029;-78
2023/05/10 02:08:00;;;;;;;0.32;0.30;;;12.10;99.90;;;;;;5074645;28;20039;-78
2023/05/10 02:10:27;;;;;;;0.52;0.43;;;12.00;99.90;;;;;;5077417;28;20068;-78
2023/05/10 02:12:54;;;;;;;1.95;0.30;;;12.00;99.90;;;;;;5069223;28;20086;-78
2023/05/10 02:15:24;;;;;;;0.25;0.20;;;12.00;99.90;;;;;;5072081;28;20020;-78
2023/05/10 02:17:51;;;;;;;0.20;0.20;;;12.00;99.90;;;;;;5071283;28;20027;-78
2023/05/10 02:20:18;;;;;;;0.28;0.25;;;11.90;99.90;;;;;;5057752;28;20443;-78
2023/05/10 02:22:46;;;;;;;0.43;0.40;;;11.90;99.90;;;;;;5075913;28;20055;-73
2023/05/10 02:25:14;;;;;;;0.35;0.35;;;11.90;99.90;;;;;;5076600;28;20154;-77
2023/05/10 02:27:43;;;;;;;0.30;0.30;;;11.90;99.90;;;;;;5079463;28;20032;-78
2023/05/10 02:30:10;;;;;;;0.52;0.52;;;11.90;99.90;;;;;;5075637;28;20155;-79
2023/05/10 02:32:37;;;;;;;4.32;0.40;;;11.90;99.90;;;;;;5075583;28;20036;-78
2023/05/10 02:35:04;;;;;;;0.20;0.20;;;11.90;99.90;;;;;;5075642;28;20032;-77
2023/05/10 02:37:32;;;;;;;0.55;0.30;;;11.90;99.90;;;;;;5075671;28;20024;-78
2023/05/10 02:39:58;;;;;;;0.32;0.32;;;11.90;99.90;;;;;;5075568;28;20078;-78
2023/05/10 02:42:27;;;;;;;0.60;0.50;;;11.90;99.90;;;;;;5076356;28;20028;-79
2023/05/10 02:44:59;;;;;;;1.88;0.45;;;11.90;99.90;;;;;;5076461;28;20036;-76
2023/05/10 02:47:26;;;;;;;1.75;0.50;;;11.90;99.90;;;;;;5074286;28;20095;-77
2023/05/10 02:49:51;;;;;;;0.47;0.47;;;11.90;99.90;;;;;;5074880;28;20064;-77
2023/05/10 02:52:24;;;;;;;0.40;0.40;;;11.90;99.90;;;;;;5077294;28;20137;-77
2023/05/10 02:54:55;;;;;;;0.40;0.40;;;11.90;99.90;;;;;;5079654;28;20402;-77
2023/05/10 02:57:28;;;;;;;1.25;0.47;;;12.00;99.90;;;;;;5082693;28;20027;-76
2023/05/10 02:59:55;;;;;;;0.95;0.40;;;12.00;99.90;;;;;;5080877;28;20029;-75
2023/05/10 03:02:20;;;;;;;0.47;0.40;;;12.00;99.90;;;;;;5066653;28;20021;-74
2023/05/10 03:04:46;;;;;;;0.22;0.22;;;12.00;99.90;;;;;;5081891;28;20027;-71
2023/05/10 03:07:12;;;;;;;0.38;0.38;;;12.00;99.90;;;;;;5082815;28;20032;-75
2023/05/10 03:09:38;;;;;;;0.40;0.40;;;12.00;99.90;;;;;;5085340;28;20017;-76
2023/05/10 03:12:19;;;;;;;1.23;0.47;;;11.90;99.90;;;;;;5072713;28;20024;-75
2023/05/10 03:15:09;;;;;;;0.35;0.35;;;12.00;99.90;;;;;;5076515;28;20028;-71
2023/05/10 03:17:46;;;;;;;0.63;0.50;;;12.00;99.90;;;;;;5078315;28;20354;-75
2023/05/10 03:20:18;;;;;;;0.47;0.40;;;11.90;99.90;;;;;;5081315;28;20488;-74
2023/05/10 03:23:00;;;;;;;3.60;0.55;;;12.00;99.90;;;;;;5078923;28;20456;-75
2023/05/10 03:25:26;;;;;;;1.10;0.73;;;12.00;99.90;;;;;;5083271;28;20510;-75
2023/05/10 03:27:53;;;;;;;0.40;0.40;;;12.00;99.90;;;;;;5082053;28;20364;-78
2023/05/10 03:30:19;;;;;;;0.82;0.47;;;12.00;99.90;;;;;;5079815;28;20537;-76
2023/05/10 03:32:45;;;;;;;0.35;0.30;;;11.90;99.90;;;;;;5081516;28;20025;-73
2023/05/10 03:35:13;;;;;;;0.47;0.45;;;12.00;99.90;;;;;;5082074;28;20354;-78
2023/05/10 03:37:38;;;;;;;0.45;0.40;;;11.90;99.90;;;;;;5083177;28;20900;-76
2023/05/10 03:40:05;;;;;;;1.10;0.35;;;12.00;99.90;;;;;;5082203;28;20092;-76
2023/05/10 03:42:31;;;;;;;0.73;0.73;;;12.00;99.90;;;;;;5082379;28;20024;-77
2023/05/10 03:44:57;;;;;;;1.13;0.55;;;12.00;99.90;;;;;;5079044;28;20028;-77
2023/05/10 03:47:22;;;;;;;0.80;0.75;;;12.00;99.90;;;;;;5078883;28;20449;-75
2023/05/10 03:49:48;;;;;;;1.35;0.55;;;12.00;99.90;;;;;;5070730;28;20025;-72
2023/05/10 03:52:14;;;;;;;1.02;0.68;;;12.00;99.90;;;;;;5067088;28;20044;-78
2023/05/10 03:54:39;;;;;;;1.65;0.93;;;12.00;99.90;;;;;;5066862;28;20045;-79
2023/05/10 03:57:05;;;;;;;2.08;0.60;;;12.00;99.90;;;;;;5049590;28;20021;-77
2023/05/10 03:59:31;;;;;;;1.20;0.80;;;12.00;99.90;;;;;;5053463;28;20074;-77
2023/05/10 04:01:56;;;;;;;1.65;1.00;;;12.00;99.90;;;;;;5052783;28;20036;-76
2023/05/10 04:04:22;;;;;;;2.75;1.13;;;12.00;99.90;;;;;;5053678;28;20102;-77
2023/05/10 04:06:48;;;;;;;0.70;0.65;;;12.00;99.90;;;;;;5042882;28;20041;-72
2023/05/10 04:09:14;;;;;;;2.72;1.23;;;12.00;99.90;;;;;;5056626;28;20083;-77
2023/05/10 04:11:39;;;;;;;1.10;1.00;;;12.10;99.90;;;;;;5047690;28;20039;-71
2023/05/10 04:14:05;;;;;;;1.42;1.33;;;12.00;99.90;;;;;;5051965;28;20040;-74
2023/05/10 04:16:31;;;;;;;2.97;1.35;;;12.10;99.90;;;;;;5050600;28;20446;-72
2023/05/10 04:18:57;;;;;;;1.52;0.90;;;12.00;99.90;;;;;;5046926;28;20040;-74
2023/05/10 04:21:22;;;;;;;1.42;0.95;;;12.10;99.90;;;;;;5056634;28;20029;-77
2023/05/10 04:23:48;;;;;;;1.40;0.98;;;12.10;99.90;;;;;;5051561;28;20414;-75
2023/05/10 04:26:14;;;;;;;1.60;0.73;;;12.10;99.90;;;;;;5052227;28;20021;-78
2023/05/10 04:28:39;;;;;;;1.08;0.77;;;12.10;99.90;;;;;;5051819;28;20489;-76
2023/05/10 04:31:07;;;;;;;1.88;1.00;;;12.20;99.90;;;;;;5051014;28;20029;-73
2023/05/10 04:33:33;;;;;;;1.40;1.30;;;12.20;99.90;;;;;;5051813;28;20033;-76
2023/05/10 04:36:00;;;;;;;1.48;1.05;;;12.20;99.90;;;;;;5051546;28;20036;-76
2023/05/10 04:38:26;;;;;;;0.80;0.80;;;12.30;99.90;;;;;;5051625;28;20025;-76
2023/05/10 04:40:52;;;;;;;1.42;1.33;;;12.30;99.90;;;;;;5051355;28;20072;-76
2023/05/10 04:43:18;;;;;;;3.50;0.90;;;12.40;99.90;;;;;;5050934;28;20048;-77
2023/05/10 04:45:43;;;;;;;1.17;0.90;;;12.30;99.90;;;;;;5051911;28;20035;-77
2023/05/10 04:48:09;;;;;;;0.73;0.70;;;12.40;99.90;;;;;;5059496;28;20053;-78
2023/05/10 04:50:35;;;;;;;2.55;0.85;;;12.40;99.90;;;;;;5072143;28;20029;-76
2023/05/10 04:53:00;;;;;;;2.67;0.80;;;12.40;99.90;;;;;;5070781;28;20028;-76
2023/05/10 04:55:26;;;;;;;1.27;0.68;;;12.40;99.90;;;;;;5072153;28;20039;-76
2023/05/10 04:57:52;;;;;;;1.17;0.98;;;12.50;99.90;;;;;;5070762;28;20112;-76
2023/05/10 05:00:18;;;;;;;1.15;0.80;;;12.50;99.90;;;;;;5071931;28;20044;-77
2023/05/10 05:02:45;;;;;;;2.20;1.10;;;12.50;99.90;;;;;;5071529;28;20074;-77
2023/05/10 05:05:11;;;;;;;2.63;0.88;;;12.60;99.90;;;;;;5071192;28;20048;-77
2023/05/10 05:07:38;;;;;;;1.45;0.95;;;12.60;99.90;;;;;;5073114;28;20021;-77
2023/05/10 05:10:05;;;;;;;1.00;0.80;;;12.60;99.90;;;;;;5081290;28;20549;-77
2023/05/10 05:12:31;;;;;;;0.82;0.82;;;12.70;99.90;;;;;;5071429;28;20047;-73
2023/05/10 05:14:56;;;;;;;1.10;1.00;;;12.80;99.90;;;;;;5075204;28;20466;-74
2023/05/10 05:17:22;;;;;;;2.40;1.08;;;12.80;99.90;;;;;;5070796;28;20039;-76
2023/05/10 05:19:47;;;;;;;0.98;0.73;;;12.90;99.90;;;;;;5054318;28;20112;-73
2023/05/10 05:22:13;;;;;;;1.98;0.82;;;12.90;99.90;;;;;;5071026;28;20033;-76
2023/05/10 05:24:39;;;;;;;1.35;1.00;;;13.00;99.90;;;;;;5072061;28;20028;-82
2023/05/10 05:27:04;;;;;;;2.50;1.00;;;13.00;99.90;;;;;;5071954;28;20766;-74
2023/05/10 05:29:30;;;;;;;1.40;0.77;;;13.10;99.90;;;;;;5071579;28;20120;-74
2023/05/10 05:31:56;;;;;;;2.88;0.85;;;13.10;99.90;;;;;;5069970;28;20111;-73
2023/05/10 05:34:21;;;;;;;1.85;0.80;;;13.20;99.90;;;;;;5071446;28;20032;-71
2023/05/10 05:36:47;;;;;;;1.17;0.80;;;13.20;99.90;;;;;;5065999;28;20473;-69
2023/05/10 05:39:13;;;;;;;2.15;0.98;;;13.30;99.90;;;;;;5061472;28;20061;-72
2023/05/10 05:41:39;;;;;;;1.00;0.68;;;13.30;99.90;;;;;;5069841;28;20067;-72
2023/05/10 05:44:04;;;;;;;2.00;0.90;;;13.30;99.90;;;;;;5069142;28;20799;-73
2023/05/10 05:46:30;;;;;;;3.92;0.75;;;13.40;99.90;;;;;;5069214;28;20416;-72
2023/05/10 05:48:56;;;;;;;2.70;0.95;;;13.40;99.90;;;;;;5068970;28;20052;-72
2023/05/10 05:51:22;;;;;;;4.63;1.00;;;13.40;99.90;;;;;;5052174;28;20039;-71
2023/05/10 05:53:47;;;;;;;1.55;0.70;;;13.50;99.90;;;;;;5069433;28;20032;-71
2023/05/10 05:56:13;;;;;;;2.30;0.73;;;13.50;99.90;;;;;;5074180;28;20024;-72
2023/05/10 05:58:39;;;;;;;1.27;0.85;;;13.50;99.90;;;;;;5073202;28;20048;-73
2023/05/10 06:01:04;;;;;;;3.83;1.00;;;13.60;99.90;;;;;;5073978;28;20032;-73
2023/05/10 06:03:30;;;;;;;0.60;0.60;;;13.70;99.90;;;;;;5074170;28;20039;-72
2023/05/10 06:05:56;;;;;;;2.13;0.80;;;13.70;99.90;;;;;;5060476;28;20167;-73
2023/05/10 06:08:22;;;;;;;2.80;1.15;;;13.70;99.90;;;;;;5081454;28;20089;-73
2023/05/10 06:10:47;;;;;;;0.93;0.93;;;13.80;99.90;;;;;;5078546;28;20059;-70
2023/05/10 06:13:13;;;;;;;1.15;1.05;;;13.80;99.90;;;;;;5068268;28;20609;-72
2023/05/10 06:15:39;;;;;;;1.70;1.15;;;13.90;99.90;;;;;;5073997;28;20028;-71
2023/05/10 06:18:05;;;;;;;1.75;0.80;;;14.00;99.90;;;;;;5074557;28;20031;-72
2023/05/10 06:20:31;;;;;;;3.55;1.10;;;14.00;99.90;;;;;;5074208;28;20025;-71
2023/05/10 06:22:57;;;;;;;1.75;0.90;;;14.10;99.90;;;;;;5072195;28;20043;-72
2023/05/10 06:25:23;;;;;;;3.47;1.13;;;14.20;99.90;;;;;;5071365;28;20032;-72
2023/05/10 06:27:49;;;;;;;1.05;0.95;;;14.20;99.90;;;;;;5073607;28;20035;-70
2023/05/10 06:30:15;;;;;;;2.05;0.85;;;14.30;99.90;;;;;;5074024;28;20455;-71
2023/05/10 06:32:41;;;;;;;0.80;0.80;;;14.40;99.90;;;;;;5073581;28;20480;-72
2023/05/10 06:35:07;;;;;;;2.88;1.17;;;14.40;99.90;;;;;;5073500;28;20055;-71
2023/05/10 06:37:33;;;;;;;1.23;1.13;;;14.40;99.90;;;;;;5077365;28;20105;-72
2023/05/10 06:40:00;;;;;;;1.45;1.20;;;14.30;99.90;;;;;;5078772;28;20539;-74
2023/05/10 06:42:26;;;;;;;1.75;1.20;;;14.30;99.90;;;;;;5077815;28;20032;-73
2023/05/10 06:44:52;;;;;;;2.53;1.20;;;14.30;99.90;;;;;;5069330;28;20373;-73
2023/05/10 06:47:18;;;;;;;3.33;1.30;;;14.20;99.90;;;;;;5077737;28;20028;-72
2023/05/10 06:49:44;;;;;;;3.08;1.00;;;14.10;99.90;;;;;;5079105;28;20030;-72
2023/05/10 06:52:09;;;;;;;5.22;1.50;;;14.10;99.90;;;;;;5078220;28;20551;-74
2023/05/10 06:54:35;;;;;;;4.47;1.50;;;14.00;99.90;;;;;;5080244;28;20056;-73
2023/05/10 06:57:02;;;;;;;3.20;1.35;;;14.00;99.90;;;;;;5077981;28;20025;-72
2023/05/10 06:59:28;;;;;;;2.10;1.20;;;14.00;99.90;;;;;;5078993;28;20107;-72
2023/05/10 07:01:54;;;;;;;2.03;1.10;;;14.00;99.90;;;;;;5081262;28;20067;-72
2023/05/10 07:04:19;;;;;;;2.58;1.20;;;14.00;99.90;;;;;;5078755;28;20078;-74
2023/05/10 07:06:46;;;;;;;4.05;1.10;;;14.00;99.90;;;;;;5077881;28;20377;-72
2023/05/10 07:09:12;;;;;;;1.45;0.90;;;14.00;99.90;;;;;;5088904;28;20465;-73
2023/05/10 07:11:38;;;;;;;2.22;1.10;;;14.00;99.90;;;;;;5081374;28;20043;-74
2023/05/10 07:14:04;;;;;;;1.77;1.10;;;14.10;99.90;;;;;;5081299;28;20029;-74
2023/05/10 07:16:29;;;;;;;7.50;1.25;;;14.20;99.90;;;;;;5083382;28;20071;-73
2023/05/10 07:18:55;;;;;;;2.85;1.05;;;14.40;99.90;;;;;;5081579;28;20103;-73
2023/05/10 07:21:23;;;;;;;2.95;0.88;;;14.60;99.90;;;;;;5075251;28;20470;-74
2023/05/10 07:23:49;;;;;;;2.17;1.10;;;14.80;99.90;;;;;;5076365;28;20037;-70
2023/05/10 07:26:15;;;;;;;2.90;1.20;;;14.90;99.90;;;;;;5082477;28;20078;-74
2023/05/10 07:28:41;;;;;;;1.23;0.88;;;15.00;99.90;;;;;;5080024;28;20024;-74
2023/05/10 07:31:06;;;;;;;0.93;0.85;;;15.20;99.90;;;;;;5074357;28;20039;-73
2023/05/10 07:33:32;;;;;;;1.73;1.10;;;15.40;99.90;;;;;;5074169;28;20047;-73
2023/05/10 07:35:58;;;;;;;2.00;0.93;;;15.60;99.90;;;;;;5077223;28;20021;-74
2023/05/10 07:38:23;;;;;;;1.30;1.10;;;15.70;99.90;;;;;;5079212;28;20088;-74
2023/05/10 07:40:49;;;;;;;1.50;1.00;;;15.80;99.90;;;;;;5077602;28;20028;-73
2023/05/10 07:43:14;;;;;;;3.20;1.00;;;15.90;99.90;;;;;;5075695;28;20055;-73
2023/05/10 07:45:40;;;;;;;1.75;0.90;;;16.00;99.90;;;;;;5079679;28;20062;-74
2023/05/10 07:48:05;;;;;;;1.77;0.80;;;16.10;99.90;;;;;;5082978;28;20622;-74
2023/05/10 07:50:31;;;;;;;0.98;0.65;;;16.20;99.90;;;;;;5079164;28;20036;-74
2023/05/10 07:52:56;;;;;;;2.58;0.80;;;16.20;99.90;;;;;;5077886;28;20040;-72
2023/05/10 07:55:22;;;;;;;1.30;1.10;;;16.30;99.90;;;;;;5073555;28;20118;-73
2023/05/10 07:57:48;;;;;;;2.90;0.60;;;16.40;99.90;;;;;;5080273;28;20029;-71
2023/05/10 08:00:17;;;;;;;1.10;0.70;;;16.50;99.90;;;;;;5082383;28;20020;-73
2023/05/10 08:02:43;;;;;;;1.92;0.77;;;16.60;99.90;;;;;;5079869;28;20058;-74
2023/05/10 08:05:09;;;;;;;0.93;0.60;;;16.60;99.90;;;;;;5084017;28;20859;-74
2023/05/10 08:07:35;;;;;;;1.55;0.60;;;16.60;99.90;;;;;;5078874;28;20522;-73
2023/05/10 08:10:01;;;;;;;0.77;0.65;;;16.50;99.90;;;;;;5090103;28;20085;-73
2023/05/10 08:12:27;;;;;;;0.50;0.50;;;16.40;99.90;;;;;;5080608;28;20028;-73
2023/05/10 08:14:52;;;;;;;1.10;0.52;;;16.30;99.90;;;;;;5085885;28;20442;-72
2023/05/10 08:17:18;;;;;;;1.25;0.70;;;16.30;99.90;;;;;;5084668;28;20032;-73
2023/05/10 08:19:43;;;;;;;6.13;0.77;;;16.20;99.90;;;;;;5084085;28;20029;-73
2023/05/10 08:22:09;;;;;;;4.38;0.90;;;16.10;99.90;;;;;;5078464;28;20923;-73
2023/05/10 08:24:38;;;;;;;4.07;0.60;;;16.00;99.90;;;;;;5077280;28;20016;-73
2023/05/10 08:27:07;;;;;;;0.60;0.60;;;16.00;99.90;;;;;;5078278;28;20024;-73
2023/05/10 08:29:32;;;;;;;1.80;0.60;;;16.00;99.90;;;;;;5076876;28;20033;-73
2023/05/10 08:31:58;;;;;;;2.80;0.95;;;16.00;99.90;;;;;;5076977;28;20020;-73
2023/05/10 08:34:23;;;;;;;4.03;1.08;;;16.00;99.90;;;;;;5084387;28;20032;-71
2023/05/10 08:36:50;;;;;;;6.82;0.70;;;16.00;99.90;;;;;;5081926;28;20025;-70
2023/05/10 08:39:16;;;;;;;1.05;0.63;;;16.00;99.90;;;;;;5079926;28;20027;-73
2023/05/10 08:41:44;;;;;;;0.88;0.82;;;16.00;99.90;;;;;;5077060;28;20447;-73
2023/05/10 08:44:10;;;;;;;1.08;0.70;;;16.00;99.90;;;;;;5077487;28;20088;-73
2023/05/10 08:46:39;;;;;;;2.50;0.75;;;16.00;99.90;;;;;;5072433;28;20039;-71
2023/05/10 08:49:08;;;;;;;1.10;0.63;;;15.90;99.90;;;;;;5069752;28;20045;-72
2023/05/10 08:51:40;;;;;;;1.40;0.70;;;15.90;99.90;;;;;;5071341;28;20032;-72
2023/05/10 08:54:06;;;;;;;1.58;0.70;;;16.00;99.90;;;;;;5069760;28;20029;-71
2023/05/10 08:56:31;;;;;;;1.35;0.80;;;16.00;99.90;;;;;;5074655;28;20029;-71
2023/05/10 08:58:57;;;;;;;2.80;0.75;;;16.10;99.90;;;;;;5069336;28;20098;-71
2023/05/10 09:01:24;;;;;;;4.65;1.10;;;16.20;99.90;;;;;;5066127;28;20028;-72
2023/05/10 09:03:50;;;;;;;2.47;0.57;;;16.50;99.90;;;;;;5061202;28;20043;-70
2023/05/10 09:06:16;;;;;;;4.18;0.98;;;16.80;99.90;;;;;;5070581;28;20055;-71
2023/05/10 09:08:43;;;;;;;1.40;0.50;;;16.90;99.90;;;;;;5079731;28;20020;-71
2023/05/10 09:11:09;;;;;;;2.28;0.70;;;17.00;99.90;;;;;;5070459;28;20579;-71
2023/05/10 09:13:36;;;;;;;1.23;0.80;;;17.10;99.90;;;;;;5069927;28;20048;-71
2023/05/10 09:16:03;;;;;;;0.85;0.60;;;17.20;99.90;;;;;;5069835;28;20029;-71
2023/05/10 09:18:28;;;;;;;3.83;0.80;;;17.20;99.90;;;;;;5070301;28;20039;-72
2023/05/10 09:20:54;;;;;;;2.50;0.50;;;17.20;99.90;;;;;;5069587;28;20024;-71
2023/05/10 09:23:20;;;;;;;1.27;0.57;;;17.40;99.90;;;;;;5070633;28;20362;-71
2023/05/10 09:25:45;;;;;;;1.17;0.60;;;17.60;99.90;;;;;;5071813;28;20035;-71
2023/05/10 09:28:11;;;;;;;2.47;0.50;;;17.50;99.90;;;;;;5069816;28;20453;-72
2023/05/10 09:30:37;;;;;;;2.95;0.50;;;17.40;99.90;;;;;;5074067;28;20081;-71
2023/05/10 09:33:03;;;;;;;3.67;1.00;;;17.40;99.90;;;;;;5073907;28;20033;-72
2023/05/10 09:35:31;;;;;;;2.50;0.65;;;17.30;99.90;;;;;;5075227;28;20028;-71
2023/05/10 09:37:59;;;;;;;2.55;0.50;;;17.30;99.90;;;;;;5074095;28;20028;-71
2023/05/10 09:40:27;;;;;;;1.35;0.40;;;17.40;99.90;;;;;;5075047;28;20058;-72
2023/05/10 09:43:08;;;;;;;0.50;0.35;;;17.40;99.90;;;;;;5073591;28;20440;-71
2023/05/10 09:45:35;;;;;;;3.42;0.52;;;17.40;99.90;;;;;;5075197;28;20032;-71
2023/05/10 09:48:02;;;;;;;1.02;0.43;;;17.60;99.90;;;;;;5075514;28;20045;-72
2023/05/10 09:50:29;;;;;;;0.90;0.32;;;17.80;99.90;;;;;;5077544;28;20035;-71
2023/05/10 09:53:03;;;;;;;2.70;0.50;;;17.90;99.90;;;;;;5075065;28;20032;-71
2023/05/10 09:55:45;;;;;;;0.68;0.50;;;18.00;99.90;;;;;;5075601;28;20500;-71
2023/05/10 09:58:12;;;;;;;2.53;0.50;;;18.00;99.90;;;;;;5076254;28;20029;-70
2023/05/10 10:00:40;;;;;;;0.57;0.28;;;17.90;99.90;;;;;;5075113;28;20032;-72
2023/05/10 10:03:06;;;;;;;1.77;1.00;;;17.80;99.90;;;;;;5074357;28;20694;-72
2023/05/10 10:05:34;;;;;;;0.50;0.40;;;17.80;99.90;;;;;;5074531;28;20051;-71
2023/05/10 10:08:02;;;;;;;5.28;0.30;;;17.90;99.90;;;;;;5077255;28;20096;-71
2023/05/10 10:10:28;;;;;;;0.77;0.40;;;17.90;99.90;;;;;;5083360;28;20048;-71
2023/05/10 10:12:55;;;;;;;2.78;0.52;;;17.90;99.90;;;;;;5073707;28;20044;-70
2023/05/10 10:15:21;;;;;;;1.17;0.40;;;17.90;99.90;;;;;;5075159;28;20032;-71
2023/05/10 10:17:48;;;;;;;3.35;0.40;;;17.80;99.90;;;;;;5072357;28;20654;-70
2023/05/10 10:20:15;;;;;;;0.52;0.30;;;17.70;99.90;;;;;;5075366;28;20032;-71
2023/05/10 10:22:41;;;;;;;1.48;0.50;;;17.40;99.90;;;;;;5075149;28;20051;-71
2023/05/10 10:25:07;;;;;;;1.02;0.30;;;17.20;99.90;;;;;;5076410;28;20020;-72
2023/05/10 10:27:51;;;;;;;1.35;0.32;;;17.10;99.90;;;;;;5077263;28;20028;-72
2023/05/10 10:30:36;;;;;;;0.47;0.30;;;17.10;99.90;;;;;;5074916;28;20028;-72
2023/05/10 10:33:36;;;;;;;1.20;0.40;;;17.20;99.90;;;;;;5067473;28;20067;-71
2023/05/10 10:36:03;;;;;;;2.08;0.65;;;17.40;99.90;;;;;;5058234;28;20029;-72
2023/05/10 10:38:59;;;;;;;1.42;0.50;;;17.60;99.90;;;;;;5076045;28;20035;-72
2023/05/10 10:41:43;;;;;;;2.40;0.50;;;17.80;99.90;;;;;;5074111;28;20162;-72
2023/05/10 10:44:33;;;;;;;0.47;0.40;;;18.00;99.90;;;;;;5066099;28;20112;-73
2023/05/10 10:47:24;;;;;;;3.23;0.60;;;18.10;99.90;;;;;;5060007;28;20048;-72
2023/05/10 10:50:04;;;;;;;1.02;0.40;;;18.10;99.90;;;;;;5073405;28;20271;-70
2023/05/10 10:52:41;;;;;;;0.40;0.35;;;18.10;99.90;;;;;;5074816;28;20376;-71
2023/05/10 10:55:08;;;;;;;0.38;0.30;;;18.00;99.90;;;;;;5071748;28;20150;-70
2023/05/10 10:57:43;;;;;;;0.75;0.60;;;17.80;99.90;;;;;;5074054;28;20031;-71
2023/05/10 11:00:31;;;;;;;2.72;0.30;;;17.60;99.90;;;;;;5073882;28;20027;-71
2023/05/10 11:03:07;;;;;;;0.52;0.30;;;17.40;99.90;;;;;;5064533;28;20023;-72
2023/05/10 11:05:42;;;;;;;0.90;0.30;;;17.20;99.90;;;;;;5081674;28;20048;-71
2023/05/10 11:08:13;;;;;;;3.13;0.30;;;17.10;99.90;;;;;;5080725;28;20453;-71
2023/05/10 11:10:40;;;;;;;5.32;0.55;;;17.00;99.90;;;;;;5073735;28;20033;-70
2023/05/10 11:13:07;;;;;;;1.02;0.30;;;17.00;99.90;;;;;;5073080;28;20028;-72
2023/05/10 11:15:35;;;;;;;0.80;0.50;;;17.00;99.90;;;;;;5073393;28;20024;-72
2023/05/10 11:18:29;;;;;;;1.20;0.45;;;16.90;99.90;;;;;;5073017;28;20020;-72
2023/05/10 11:20:55;;;;;;;1.58;0.40;;;16.90;99.90;;;;;;5082872;28;20040;-71
2023/05/10 11:23:21;;;;;;;2.35;0.50;;;16.80;99.90;;;;;;5082308;28;20434;-72
2023/05/10 11:25:48;;;;;;;1.13;0.40;;;16.70;99.90;;;;;;5087233;28;20574;-70
2023/05/10 11:28:14;;;;;;;0.40;0.30;;;16.60;99.90;;;;;;5074091;28;20033;-72
2023/05/10 11:30:41;;;;;;;1.25;0.40;;;16.60;99.90;;;;;;5072344;28;20040;-71
2023/05/10 11:33:08;;;;;;;2.17;0.70;;;16.50;99.90;;;;;;5072163;28;20051;-72
2023/05/10 11:35:40;;;;;;;1.42;0.40;;;16.50;99.90;;;;;;5080486;28;20059;-72
2023/05/10 11:38:10;;;;;;;2.38;0.68;;;16.60;99.90;;;;;;5082072;28;20220;-71
2023/05/10 11:40:36;;;;;;;;;;;16.80;99.90;;;;;;5083383;28;20028;-71
2023/05/10 11:43:02;;;;;;;1.20;0.80;;;17.10;99.90;;;;;;5083807;28;19912;-71
2023/05/10 11:45:29;;;;;;;4.60;0.50;;;17.30;99.90;;;;;;5081455;28;20048;-72
2023/05/10 11:47:56;;;;;;;1.27;1.13;;;17.50;99.90;;;;;;5086251;28;20040;-72
2023/05/10 11:50:22;;;;;;;2.63;0.90;;;17.60;99.90;;;;;;5082806;28;20051;-72
2023/05/10 11:52:58;;;;;;;1.30;0.50;;;17.60;99.90;;;;;;5078600;28;20060;-70
2023/05/10 11:55:24;;;;;;;3.90;0.40;;;17.50;99.90;;;;;;5080973;28;20085;-73
2023/05/10 11:57:59;;;;;;;2.03;0.50;;;17.50;99.90;;;;;;5080999;28;20404;-73
2023/05/10 12:00:25;;;;;;;1.35;0.65;;;17.30;99.90;;;;;;5082879;28;20480;-71
2023/05/10 12:02:51;;;;;;;2.00;0.55;;;17.20;99.90;;;;;;5083238;28;20029;-71
2023/05/10 12:05:17;;;;;;;1.73;0.60;;;17.00;99.90;;;;;;5085268;28;20106;-71
2023/05/10 12:07:42;;;;;;;3.20;0.80;;;16.90;99.90;;;;;;5079976;28;20374;-71
2023/05/10 12:10:11;;;;;;;1.27;0.60;;;16.90;99.90;;;;;;5081940;28;20099;-71
2023/05/10 12:12:45;;;;;;;5.07;0.95;;;16.70;99.90;;;;;;5084135;28;20613;-70
2023/05/10 12:15:19;;;;;;;1.83;0.60;;;16.40;99.90;;;;;;5082082;28;20019;-71
2023/05/10 12:17:46;;;;;;;2.22;0.85;;;16.40;99.90;;;;;;5083234;28;20468;-70
2023/05/10 12:20:18;;;;;;;2.35;0.70;;;16.50;99.90;;;;;;5082966;28;20099;-71
2023/05/10 12:22:49;;;;;;;2.13;0.60;;;16.50;99.90;;;;;;5080304;28;20020;-71
2023/05/10 12:25:16;;;;;;;1.15;0.60;;;16.60;99.90;;;;;;5081643;28;20040;-71
2023/05/10 12:27:51;;;;;;;1.27;0.50;;;16.70;99.90;;;;;;5079567;28;20023;-72
2023/05/10 12:30:28;;;;;;;2.03;0.60;;;16.80;99.90;;;;;;5075254;28;20032;-71
2023/05/10 12:32:59;;;;;;;1.60;0.80;;;17.00;99.90;;;;;;5072916;28;20033;-72
2023/05/10 12:35:25;;;;;;;1.65;0.60;;;17.00;99.90;;;;;;5074222;28;20021;-71
2023/05/10 12:37:51;;;;;;;3.38;0.93;;;17.20;99.90;;;;;;5072800;28;20044;-70
2023/05/10 12:40:17;;;;;;;2.47;0.85;;;17.30;99.90;;;;;;5073365;28;20028;-71
2023/05/10 12:42:44;;;;;;;2.53;0.60;;;17.50;99.90;;;;;;5073561;28;20082;-72
2023/05/10 12:45:10;;;;;;;2.10;0.65;;;17.60;99.90;;;;;;5076443;28;20035;-71
2023/05/10 12:47:37;;;;;;;0.93;0.65;;;17.70;99.90;;;;;;5076020;28;20079;-69
2023/05/10 12:50:03;;;;;;;1.27;0.68;;;17.70;99.90;;;;;;5070950;28;20269;-70
2023/05/10 12:52:31;;;;;;;1.67;0.57;;;17.70;99.90;;;;;;5071407;28;20037;-70
2023/05/10 12:54:57;;;;;;;3.60;0.65;;;17.70;99.90;;;;;;5070004;28;20048;-70
2023/05/10 12:57:23;;;;;;;1.95;0.55;;;17.70;99.90;;;;;;5053294;28;20058;-70